Farfan Airport


Codes: SKUL/ULQ
Name: Farfan Airport
City: Tulua
Country: Colombia
Elevation: 3132 ft.

Photos at Farfan Airport


   Photos courtesy of SpottingLog. You can add your own sightings and photos by signing up for a free trial today.



No photos found.

Weather at Farfan Airport


Time (UTC)DescriptionTempratureWindCloud coverageVisibilityPressureHumidity
13-Jun-2024 03:00Moderate Rain21°C0 mph, SW11%10000m1013hPa93%
13-Jun-2024 06:00Light Rain20°C2 mph, E41%10000m1013hPa94%
13-Jun-2024 09:00Light Rain19°C0 mph, SE96%10000m1014hPa96%
13-Jun-2024 12:00Light Rain20°C2 mph, S97%10000m1015hPa94%
13-Jun-2024 15:00Overcast Clouds24°C2 mph, E92%10000m1014hPa78%
13-Jun-2024 18:00Light Rain28°C0 mph, N89%10000m1011hPa61%
13-Jun-2024 21:00Light Rain25°C2 mph, W90%6541m1010hPa79%
14-Jun-2024 00:00Light Rain21°C0 mph, W89%10000m1013hPa92%
14-Jun-2024 03:00Light Rain21°C2 mph, SW91%10000m1015hPa95%
14-Jun-2024 06:00Light Rain20°C2 mph, SW96%10000m1014hPa96%
14-Jun-2024 09:00Light Rain20°C0 mph, W100%10000m1013hPa97%
14-Jun-2024 12:00Light Rain20°C2 mph, SE100%10000m1015hPa96%
14-Jun-2024 15:00Light Rain23°C2 mph, E100%10000m1014hPa85%
14-Jun-2024 18:00Light Rain26°C2 mph, N99%9848m1012hPa76%
14-Jun-2024 21:00Moderate Rain24°C2 mph, NW100%7697m1011hPa86%
15-Jun-2024 00:00Moderate Rain21°C2 mph, N100%7039m1013hPa96%
15-Jun-2024 03:00Light Rain20°C0 mph, N100%8102m1015hPa98%
15-Jun-2024 06:00Light Rain20°C0 mph, NE100%7771m1015hPa98%
15-Jun-2024 09:00Light Rain20°C2 mph, NE100%10000m1014hPa98%
15-Jun-2024 12:00Light Rain20°C2 mph, NE100%6356m1015hPa98%
15-Jun-2024 15:00Light Rain21°C2 mph, NE100%3677m1016hPa95%
15-Jun-2024 18:00Light Rain21°C4 mph, NE100%7576m1014hPa95%
15-Jun-2024 21:00Light Rain21°C4 mph, NE100%10000m1013hPa96%
16-Jun-2024 00:00Light Rain20°C2 mph, NE100%10000m1015hPa99%
16-Jun-2024 03:00Overcast Clouds19°C0 mph, NW100%2510m1016hPa98%
16-Jun-2024 06:00Overcast Clouds19°C0 mph, E100%10000m1015hPa97%
16-Jun-2024 09:00Light Rain19°C0 mph, N98%10000m1014hPa97%
16-Jun-2024 12:00Light Rain19°C2 mph, NE99%10000m1015hPa98%
16-Jun-2024 15:00Light Rain21°C2 mph, E100%10000m1016hPa91%
16-Jun-2024 18:00Light Rain22°C2 mph, SE100%10000m1013hPa85%
16-Jun-2024 21:00Light Rain24°C2 mph, N95%10000m1011hPa77%
17-Jun-2024 00:00Light Rain21°C2 mph, NW98%10000m1013hPa93%
17-Jun-2024 03:00Light Rain20°C0 mph, W100%10000m1015hPa94%
17-Jun-2024 06:00Light Rain19°C0 mph, N97%10000m1014hPa95%
17-Jun-2024 09:00Light Rain19°C0 mph, NE94%10000m1014hPa96%
17-Jun-2024 12:00Light Rain20°C2 mph, E97%10000m1015hPa96%
17-Jun-2024 15:00Light Rain24°C2 mph, NE85%10000m1014hPa80%
17-Jun-2024 18:00Light Rain27°C2 mph, W85%10000m1011hPa67%
17-Jun-2024 21:00Light Rain23°C0 mph, W89%10000m1010hPa84%
18-Jun-2024 00:00Moderate Rain21°C2 mph, SW92%8662m1013hPa93%